KMXO/MXO METAR and TAF weather

Enter ICAO airport designator
Station Type Date Time Source
KMXO METAR 2019/10/15 21:15 UTC NOAA

KMXO 152115Z AUTO 29011G19KT 10SM CLR 14/04 A2981 RMK AO2


Station Type Date Time Source
KMXO Decoded METAR 2019/10/15 21:15 UTC NOAA

Monticello Municipal, IA, United States (KMXO) 42-14N 091-10W
Oct 15, 2019 - 05:15 PM EDT / 2019.10.15 2115 UTC
Wind: from the WNW (290 degrees) at 13 MPH (11 KT) gusting to 22 MPH (19 KT):0
Visibility: 10 mile(s):0
Sky conditions: clear
Temperature: 57 F (14 C)
Dew Point: 39 F (4 C)
Relative Humidity: 50%
Pressure (altimeter): 29.81 in. Hg (1009 hPa)
ob: KMXO 152115Z AUTO 29011G19KT 10SM CLR 14/04 A2981 RMK AO2
cycle: 21

Station Type Date Time Source
KMXO TAF UTC NOAA

Error!

Example: see airport list